sensor_id;sensor_type;location;lat;lon;timestamp;P1;durP1;ratioP1;P2;durP2;ratioP2
12412;SDS011;13877;18.896;-99.222;2023-11-19T00:00:35;16.27;;;6.45;;
12412;SDS011;13877;18.896;-99.222;2023-11-19T00:03:02;18.95;;;5.82;;
12412;SDS011;13877;18.896;-99.222;2023-11-19T00:05:29;15.45;;;5.38;;
12412;SDS011;13877;18.896;-99.222;2023-11-19T00:07:56;20.27;;;5.13;;
12412;SDS011;13877;18.896;-99.222;2023-11-19T00:10:23;17.88;;;6.25;;
12412;SDS011;13877;18.896;-99.222;2023-11-19T00:12:50;13.70;;;7.30;;
12412;SDS011;13877;18.896;-99.222;2023-11-19T00:15:18;16.95;;;6.82;;
12412;SDS011;13877;18.896;-99.222;2023-11-19T00:17:46;20.25;;;7.07;;
12412;SDS011;13877;18.896;-99.222;2023-11-19T00:20:14;16.30;;;6.05;;
12412;SDS011;13877;18.896;-99.222;2023-11-19T00:22:43;22.70;;;7.28;;
12412;SDS011;13877;18.896;-99.222;2023-11-19T00:25:12;24.15;;;7.57;;
12412;SDS011;13877;18.896;-99.222;2023-11-19T00:27:39;21.67;;;6.57;;
12412;SDS011;13877;18.896;-99.222;2023-11-19T00:30:06;23.10;;;7.97;;
12412;SDS011;13877;18.896;-99.222;2023-11-19T00:32:34;21.45;;;7.38;;
12412;SDS011;13877;18.896;-99.222;2023-11-19T00:35:04;30.38;;;8.52;;
12412;SDS011;13877;18.896;-99.222;2023-11-19T00:37:40;26.23;;;9.05;;
12412;SDS011;13877;18.896;-99.222;2023-11-19T00:40:09;26.45;;;8.93;;
12412;SDS011;13877;18.896;-99.222;2023-11-19T00:42:36;21.65;;;8.65;;
12412;SDS011;13877;18.896;-99.222;2023-11-19T00:45:04;21.10;;;8.43;;
12412;SDS011;13877;18.896;-99.222;2023-11-19T00:47:35;24.35;;;8.30;;
12412;SDS011;13877;18.896;-99.222;2023-11-19T00:50:02;24.77;;;8.75;;
12412;SDS011;13877;18.896;-99.222;2023-11-19T00:52:30;18.88;;;7.85;;
12412;SDS011;13877;18.896;-99.222;2023-11-19T00:54:57;28.65;;;9.23;;
12412;SDS011;13877;18.896;-99.222;2023-11-19T00:57:24;22.08;;;8.98;;
12412;SDS011;13877;18.896;-99.222;2023-11-19T00:59:52;24.40;;;10.65;;
12412;SDS011;13877;18.896;-99.222;2023-11-19T01:02:19;25.08;;;10.23;;
12412;SDS011;13877;18.896;-99.222;2023-11-19T01:04:46;25.13;;;9.88;;
12412;SDS011;13877;18.896;-99.222;2023-11-19T01:07:14;22.30;;;10.90;;
12412;SDS011;13877;18.896;-99.222;2023-11-19T01:09:42;19.90;;;10.38;;
12412;SDS011;13877;18.896;-99.222;2023-11-19T01:12:10;26.33;;;12.23;;
12412;SDS011;13877;18.896;-99.222;2023-11-19T01:14:37;29.65;;;11.30;;
12412;SDS011;13877;18.896;-99.222;2023-11-19T01:17:05;26.08;;;10.60;;
12412;SDS011;13877;18.896;-99.222;2023-11-19T01:19:35;19.02;;;10.30;;
12412;SDS011;13877;18.896;-99.222;2023-11-19T01:22:02;26.73;;;11.27;;
12412;SDS011;13877;18.896;-99.222;2023-11-19T01:24:30;25.35;;;12.02;;
12412;SDS011;13877;18.896;-99.222;2023-11-19T01:26:57;23.25;;;11.93;;
12412;SDS011;13877;18.896;-99.222;2023-11-19T01:29:25;26.95;;;10.05;;
12412;SDS011;13877;18.896;-99.222;2023-11-19T01:31:54;24.25;;;10.13;;
12412;SDS011;13877;18.896;-99.222;2023-11-19T01:34:24;24.20;;;9.77;;
12412;SDS011;13877;18.896;-99.222;2023-11-19T01:36:51;18.15;;;9.57;;
12412;SDS011;13877;18.896;-99.222;2023-11-19T01:39:18;23.02;;;9.65;;
12412;SDS011;13877;18.896;-99.222;2023-11-19T01:41:46;21.50;;;10.00;;
12412;SDS011;13877;18.896;-99.222;2023-11-19T01:44:14;33.28;;;10.80;;
12412;SDS011;13877;18.896;-99.222;2023-11-19T01:46:42;28.60;;;10.32;;
12412;SDS011;13877;18.896;-99.222;2023-11-19T01:49:14;24.52;;;9.85;;
12412;SDS011;13877;18.896;-99.222;2023-11-19T01:51:45;20.17;;;9.55;;
12412;SDS011;13877;18.896;-99.222;2023-11-19T01:54:14;23.13;;;9.23;;
12412;SDS011;13877;18.896;-99.222;2023-11-19T01:56:42;19.90;;;9.48;;
12412;SDS011;13877;18.896;-99.222;2023-11-19T01:59:10;18.13;;;8.88;;
12412;SDS011;13877;18.896;-99.222;2023-11-19T02:01:40;24.73;;;9.57;;
12412;SDS011;13877;18.896;-99.222;2023-11-19T02:04:08;20.58;;;8.93;;
12412;SDS011;13877;18.896;-99.222;2023-11-19T02:07:00;23.10;;;9.68;;
12412;SDS011;13877;18.896;-99.222;2023-11-19T02:09:52;24.30;;;9.25;;
12412;SDS011;13877;18.896;-99.222;2023-11-19T02:12:44;30.63;;;9.00;;
12412;SDS011;13877;18.896;-99.222;2023-11-19T02:15:37;26.42;;;8.35;;
12412;SDS011;13877;18.896;-99.222;2023-11-19T02:18:29;19.92;;;7.78;;
12412;SDS011;13877;18.896;-99.222;2023-11-19T02:21:21;17.85;;;7.40;;
12412;SDS011;13877;18.896;-99.222;2023-11-19T02:24:14;18.85;;;7.55;;
12412;SDS011;13877;18.896;-99.222;2023-11-19T02:27:10;19.27;;;8.18;;
12412;SDS011;13877;18.896;-99.222;2023-11-19T02:30:47;19.83;;;9.02;;
12412;SDS011;13877;18.896;-99.222;2023-11-19T02:33:16;17.50;;;8.32;;
12412;SDS011;13877;18.896;-99.222;2023-11-19T02:35:43;36.95;;;8.50;;
12412;SDS011;13877;18.896;-99.222;2023-11-19T02:38:10;23.73;;;8.40;;
12412;SDS011;13877;18.896;-99.222;2023-11-19T02:40:40;15.65;;;7.95;;
12412;SDS011;13877;18.896;-99.222;2023-11-19T02:43:07;17.23;;;7.57;;
12412;SDS011;13877;18.896;-99.222;2023-11-19T02:45:35;28.83;;;7.15;;
12412;SDS011;13877;18.896;-99.222;2023-11-19T02:48:03;32.60;;;9.80;;
12412;SDS011;13877;18.896;-99.222;2023-11-19T02:50:32;24.60;;;9.80;;
12412;SDS011;13877;18.896;-99.222;2023-11-19T02:52:59;20.33;;;8.35;;
12412;SDS011;13877;18.896;-99.222;2023-11-19T02:55:27;18.15;;;6.35;;
12412;SDS011;13877;18.896;-99.222;2023-11-19T02:57:56;22.00;;;7.50;;
12412;SDS011;13877;18.896;-99.222;2023-11-19T03:00:25;22.08;;;7.50;;
12412;SDS011;13877;18.896;-99.222;2023-11-19T03:03:12;29.92;;;11.18;;
12412;SDS011;13877;18.896;-99.222;2023-11-19T03:05:49;26.00;;;10.35;;
12412;SDS011;13877;18.896;-99.222;2023-11-19T03:08:16;25.23;;;8.50;;
12412;SDS011;13877;18.896;-99.222;2023-11-19T03:10:43;22.30;;;7.50;;
12412;SDS011;13877;18.896;-99.222;2023-11-19T03:13:11;17.45;;;6.68;;
12412;SDS011;13877;18.896;-99.222;2023-11-19T03:15:45;16.98;;;6.63;;
12412;SDS011;13877;18.896;-99.222;2023-11-19T03:18:12;19.77;;;6.63;;
12412;SDS011;13877;18.896;-99.222;2023-11-19T03:20:40;18.52;;;6.70;;
12412;SDS011;13877;18.896;-99.222;2023-11-19T03:23:07;13.10;;;6.63;;
12412;SDS011;13877;18.896;-99.222;2023-11-19T03:25:34;22.98;;;7.95;;
12412;SDS011;13877;18.896;-99.222;2023-11-19T03:28:03;20.15;;;6.75;;
12412;SDS011;13877;18.896;-99.222;2023-11-19T03:30:31;17.88;;;6.53;;
12412;SDS011;13877;18.896;-99.222;2023-11-19T03:32:58;18.95;;;6.25;;
12412;SDS011;13877;18.896;-99.222;2023-11-19T03:35:28;18.97;;;5.70;;
12412;SDS011;13877;18.896;-99.222;2023-11-19T03:37:56;16.95;;;5.13;;
12412;SDS011;13877;18.896;-99.222;2023-11-19T03:40:24;18.13;;;5.32;;
12412;SDS011;13877;18.896;-99.222;2023-11-19T03:42:52;17.13;;;5.88;;
12412;SDS011;13877;18.896;-99.222;2023-11-19T03:45:22;17.35;;;5.18;;
12412;SDS011;13877;18.896;-99.222;2023-11-19T03:47:49;13.88;;;5.25;;
12412;SDS011;13877;18.896;-99.222;2023-11-19T03:50:16;18.08;;;5.75;;
12412;SDS011;13877;18.896;-99.222;2023-11-19T03:52:46;27.80;;;6.88;;
12412;SDS011;13877;18.896;-99.222;2023-11-19T03:55:14;18.98;;;6.55;;
12412;SDS011;13877;18.896;-99.222;2023-11-19T03:57:41;16.50;;;5.60;;
12412;SDS011;13877;18.896;-99.222;2023-11-19T04:00:08;17.95;;;5.53;;
12412;SDS011;13877;18.896;-99.222;2023-11-19T04:02:40;24.75;;;4.60;;
12412;SDS011;13877;18.896;-99.222;2023-11-19T04:05:07;17.35;;;5.10;;
12412;SDS011;13877;18.896;-99.222;2023-11-19T04:07:35;12.13;;;4.07;;
12412;SDS011;13877;18.896;-99.222;2023-11-19T04:10:03;18.13;;;4.60;;
12412;SDS011;13877;18.896;-99.222;2023-11-19T04:12:33;9.70;;;3.75;;
12412;SDS011;13877;18.896;-99.222;2023-11-19T04:15:01;14.60;;;4.25;;
12412;SDS011;13877;18.896;-99.222;2023-11-19T04:17:28;20.75;;;3.78;;
12412;SDS011;13877;18.896;-99.222;2023-11-19T04:19:55;14.73;;;3.65;;
12412;SDS011;13877;18.896;-99.222;2023-11-19T04:22:22;15.00;;;4.32;;
12412;SDS011;13877;18.896;-99.222;2023-11-19T04:24:51;9.23;;;4.32;;
12412;SDS011;13877;18.896;-99.222;2023-11-19T04:27:18;15.05;;;3.90;;
12412;SDS011;13877;18.896;-99.222;2023-11-19T04:29:45;20.17;;;3.92;;
12412;SDS011;13877;18.896;-99.222;2023-11-19T04:32:14;12.10;;;3.70;;
12412;SDS011;13877;18.896;-99.222;2023-11-19T04:34:41;9.52;;;3.92;;
12412;SDS011;13877;18.896;-99.222;2023-11-19T04:37:08;22.90;;;4.05;;
12412;SDS011;13877;18.896;-99.222;2023-11-19T04:39:36;20.25;;;4.47;;
12412;SDS011;13877;18.896;-99.222;2023-11-19T04:42:03;10.75;;;4.38;;
12412;SDS011;13877;18.896;-99.222;2023-11-19T04:44:32;14.38;;;4.63;;
12412;SDS011;13877;18.896;-99.222;2023-11-19T04:46:59;13.98;;;4.32;;
12412;SDS011;13877;18.896;-99.222;2023-11-19T04:49:27;17.63;;;4.95;;
12412;SDS011;13877;18.896;-99.222;2023-11-19T04:51:54;11.15;;;4.63;;
12412;SDS011;13877;18.896;-99.222;2023-11-19T04:54:22;19.55;;;4.95;;
12412;SDS011;13877;18.896;-99.222;2023-11-19T04:56:50;14.05;;;4.28;;
12412;SDS011;13877;18.896;-99.222;2023-11-19T04:59:17;14.57;;;4.13;;
12412;SDS011;13877;18.896;-99.222;2023-11-19T05:01:47;16.35;;;5.43;;
12412;SDS011;13877;18.896;-99.222;2023-11-19T05:04:15;18.37;;;5.03;;
12412;SDS011;13877;18.896;-99.222;2023-11-19T05:06:44;21.77;;;6.07;;
12412;SDS011;13877;18.896;-99.222;2023-11-19T05:09:11;15.02;;;5.72;;
12412;SDS011;13877;18.896;-99.222;2023-11-19T05:11:39;12.77;;;5.43;;
12412;SDS011;13877;18.896;-99.222;2023-11-19T05:14:06;22.85;;;5.93;;
12412;SDS011;13877;18.896;-99.222;2023-11-19T05:16:34;19.55;;;6.07;;
12412;SDS011;13877;18.896;-99.222;2023-11-19T05:19:02;20.13;;;6.40;;
12412;SDS011;13877;18.896;-99.222;2023-11-19T05:21:29;16.30;;;6.53;;
12412;SDS011;13877;18.896;-99.222;2023-11-19T05:23:57;25.70;;;6.55;;
12412;SDS011;13877;18.896;-99.222;2023-11-19T05:26:24;17.45;;;6.70;;
12412;SDS011;13877;18.896;-99.222;2023-11-19T05:28:51;23.80;;;6.32;;
12412;SDS011;13877;18.896;-99.222;2023-11-19T05:31:18;16.58;;;6.32;;
12412;SDS011;13877;18.896;-99.222;2023-11-19T05:33:46;25.20;;;7.22;;
12412;SDS011;13877;18.896;-99.222;2023-11-19T05:36:13;20.77;;;7.13;;
12412;SDS011;13877;18.896;-99.222;2023-11-19T05:38:40;20.13;;;7.47;;
12412;SDS011;13877;18.896;-99.222;2023-11-19T05:41:07;20.27;;;7.07;;
12412;SDS011;13877;18.896;-99.222;2023-11-19T05:43:34;24.75;;;6.95;;
12412;SDS011;13877;18.896;-99.222;2023-11-19T05:46:01;19.27;;;6.90;;
12412;SDS011;13877;18.896;-99.222;2023-11-19T05:48:29;19.08;;;7.38;;
12412;SDS011;13877;18.896;-99.222;2023-11-19T05:50:56;27.88;;;8.43;;
12412;SDS011;13877;18.896;-99.222;2023-11-19T05:53:23;18.67;;;8.02;;
12412;SDS011;13877;18.896;-99.222;2023-11-19T05:55:50;26.08;;;8.98;;
12412;SDS011;13877;18.896;-99.222;2023-11-19T05:58:27;30.67;;;9.07;;
12412;SDS011;13877;18.896;-99.222;2023-11-19T06:00:55;23.92;;;7.40;;
12412;SDS011;13877;18.896;-99.222;2023-11-19T06:03:22;20.52;;;7.30;;
12412;SDS011;13877;18.896;-99.222;2023-11-19T06:05:49;23.67;;;6.63;;
12412;SDS011;13877;18.896;-99.222;2023-11-19T06:08:17;19.48;;;7.18;;
12412;SDS011;13877;18.896;-99.222;2023-11-19T06:10:46;21.35;;;6.95;;
12412;SDS011;13877;18.896;-99.222;2023-11-19T06:13:16;20.65;;;7.15;;
12412;SDS011;13877;18.896;-99.222;2023-11-19T06:15:43;21.27;;;6.45;;
12412;SDS011;13877;18.896;-99.222;2023-11-19T06:18:11;15.95;;;7.15;;
12412;SDS011;13877;18.896;-99.222;2023-11-19T06:20:38;21.70;;;6.72;;
12412;SDS011;13877;18.896;-99.222;2023-11-19T06:23:06;20.38;;;6.60;;
12412;SDS011;13877;18.896;-99.222;2023-11-19T06:25:34;15.40;;;6.35;;
12412;SDS011;13877;18.896;-99.222;2023-11-19T06:28:01;19.25;;;6.35;;
12412;SDS011;13877;18.896;-99.222;2023-11-19T06:30:29;13.00;;;6.13;;
12412;SDS011;13877;18.896;-99.222;2023-11-19T06:32:58;19.35;;;6.95;;
12412;SDS011;13877;18.896;-99.222;2023-11-19T06:35:26;12.23;;;5.78;;
12412;SDS011;13877;18.896;-99.222;2023-11-19T06:37:55;24.05;;;5.50;;
12412;SDS011;13877;18.896;-99.222;2023-11-19T06:40:22;11.63;;;5.13;;
12412;SDS011;13877;18.896;-99.222;2023-11-19T06:42:50;20.58;;;6.70;;
12412;SDS011;13877;18.896;-99.222;2023-11-19T06:45:18;21.77;;;6.95;;
12412;SDS011;13877;18.896;-99.222;2023-11-19T06:47:46;10.02;;;5.47;;
12412;SDS011;13877;18.896;-99.222;2023-11-19T06:50:15;19.83;;;7.07;;
12412;SDS011;13877;18.896;-99.222;2023-11-19T06:52:45;22.08;;;7.65;;
12412;SDS011;13877;18.896;-99.222;2023-11-19T06:55:13;15.85;;;6.70;;
12412;SDS011;13877;18.896;-99.222;2023-11-19T06:57:40;12.85;;;6.72;;
12412;SDS011;13877;18.896;-99.222;2023-11-19T07:00:09;18.35;;;6.30;;
12412;SDS011;13877;18.896;-99.222;2023-11-19T07:02:37;13.43;;;6.53;;
12412;SDS011;13877;18.896;-99.222;2023-11-19T07:05:05;21.52;;;6.35;;
12412;SDS011;13877;18.896;-99.222;2023-11-19T07:07:34;11.57;;;5.00;;
12412;SDS011;13877;18.896;-99.222;2023-11-19T07:10:01;17.73;;;5.70;;
12412;SDS011;13877;18.896;-99.222;2023-11-19T07:12:30;9.70;;;4.50;;
12412;SDS011;13877;18.896;-99.222;2023-11-19T07:14:57;27.70;;;5.18;;
12412;SDS011;13877;18.896;-99.222;2023-11-19T07:17:24;20.92;;;4.72;;
12412;SDS011;13877;18.896;-99.222;2023-11-19T07:19:53;14.85;;;4.90;;
12412;SDS011;13877;18.896;-99.222;2023-11-19T07:22:21;17.50;;;4.80;;
12412;SDS011;13877;18.896;-99.222;2023-11-19T07:24:48;19.23;;;5.20;;
12412;SDS011;13877;18.896;-99.222;2023-11-19T07:27:16;10.38;;;4.53;;
12412;SDS011;13877;18.896;-99.222;2023-11-19T07:29:43;24.02;;;5.15;;
12412;SDS011;13877;18.896;-99.222;2023-11-19T07:32:11;13.98;;;4.70;;
12412;SDS011;13877;18.896;-99.222;2023-11-19T07:34:39;10.95;;;4.95;;
12412;SDS011;13877;18.896;-99.222;2023-11-19T07:37:06;15.18;;;5.38;;
12412;SDS011;13877;18.896;-99.222;2023-11-19T07:39:33;17.33;;;5.15;;
12412;SDS011;13877;18.896;-99.222;2023-11-19T07:42:02;10.25;;;5.22;;
12412;SDS011;13877;18.896;-99.222;2023-11-19T07:44:29;15.15;;;5.00;;
12412;SDS011;13877;18.896;-99.222;2023-11-19T07:46:57;8.40;;;5.10;;
12412;SDS011;13877;18.896;-99.222;2023-11-19T07:49:24;9.55;;;5.60;;
12412;SDS011;13877;18.896;-99.222;2023-11-19T07:51:51;12.50;;;4.88;;
12412;SDS011;13877;18.896;-99.222;2023-11-19T07:54:18;13.65;;;5.07;;
12412;SDS011;13877;18.896;-99.222;2023-11-19T07:56:47;17.02;;;4.88;;
12412;SDS011;13877;18.896;-99.222;2023-11-19T07:59:15;8.98;;;4.57;;
12412;SDS011;13877;18.896;-99.222;2023-11-19T08:01:43;11.07;;;4.32;;
12412;SDS011;13877;18.896;-99.222;2023-11-19T08:04:10;12.05;;;5.82;;
12412;SDS011;13877;18.896;-99.222;2023-11-19T08:06:38;13.57;;;5.82;;
12412;SDS011;13877;18.896;-99.222;2023-11-19T08:09:05;12.98;;;5.10;;
12412;SDS011;13877;18.896;-99.222;2023-11-19T08:11:33;14.38;;;6.22;;
12412;SDS011;13877;18.896;-99.222;2023-11-19T08:14:00;12.18;;;6.13;;
12412;SDS011;13877;18.896;-99.222;2023-11-19T08:16:27;17.60;;;5.68;;
12412;SDS011;13877;18.896;-99.222;2023-11-19T08:18:54;14.65;;;5.32;;
12412;SDS011;13877;18.896;-99.222;2023-11-19T08:21:24;16.20;;;6.18;;
12412;SDS011;13877;18.896;-99.222;2023-11-19T08:23:52;14.75;;;5.70;;
12412;SDS011;13877;18.896;-99.222;2023-11-19T08:26:20;18.75;;;6.28;;
12412;SDS011;13877;18.896;-99.222;2023-11-19T08:28:47;14.48;;;6.07;;
12412;SDS011;13877;18.896;-99.222;2023-11-19T08:31:14;25.10;;;6.22;;
12412;SDS011;13877;18.896;-99.222;2023-11-19T08:33:41;12.82;;;5.82;;
12412;SDS011;13877;18.896;-99.222;2023-11-19T08:36:08;13.15;;;6.35;;
12412;SDS011;13877;18.896;-99.222;2023-11-19T08:38:41;21.33;;;6.85;;
12412;SDS011;13877;18.896;-99.222;2023-11-19T08:41:08;19.15;;;7.00;;
12412;SDS011;13877;18.896;-99.222;2023-11-19T08:43:36;16.75;;;6.95;;
12412;SDS011;13877;18.896;-99.222;2023-11-19T08:46:03;13.15;;;6.57;;
12412;SDS011;13877;18.896;-99.222;2023-11-19T08:48:35;20.23;;;7.78;;
12412;SDS011;13877;18.896;-99.222;2023-11-19T08:51:02;18.50;;;6.75;;
12412;SDS011;13877;18.896;-99.222;2023-11-19T08:53:30;27.45;;;7.22;;
12412;SDS011;13877;18.896;-99.222;2023-11-19T08:55:57;15.15;;;6.32;;
12412;SDS011;13877;18.896;-99.222;2023-11-19T08:58:26;15.60;;;6.82;;
12412;SDS011;13877;18.896;-99.222;2023-11-19T09:00:53;15.40;;;6.80;;
12412;SDS011;13877;18.896;-99.222;2023-11-19T09:03:20;14.63;;;6.97;;
12412;SDS011;13877;18.896;-99.222;2023-11-19T09:05:48;18.52;;;7.28;;
12412;SDS011;13877;18.896;-99.222;2023-11-19T09:08:15;10.57;;;6.47;;
12412;SDS011;13877;18.896;-99.222;2023-11-19T09:10:42;10.02;;;6.03;;
12412;SDS011;13877;18.896;-99.222;2023-11-19T09:13:10;16.75;;;6.50;;
12412;SDS011;13877;18.896;-99.222;2023-11-19T09:15:37;16.85;;;5.97;;
12412;SDS011;13877;18.896;-99.222;2023-11-19T09:18:04;12.77;;;5.93;;
12412;SDS011;13877;18.896;-99.222;2023-11-19T09:20:31;11.23;;;5.55;;
12412;SDS011;13877;18.896;-99.222;2023-11-19T09:23:05;11.13;;;5.10;;
12412;SDS011;13877;18.896;-99.222;2023-11-19T09:25:32;17.80;;;6.07;;
12412;SDS011;13877;18.896;-99.222;2023-11-19T09:28:00;10.48;;;4.82;;
12412;SDS011;13877;18.896;-99.222;2023-11-19T09:30:27;16.20;;;5.00;;
12412;SDS011;13877;18.896;-99.222;2023-11-19T09:32:54;10.25;;;4.72;;
12412;SDS011;13877;18.896;-99.222;2023-11-19T09:35:21;15.05;;;5.40;;
12412;SDS011;13877;18.896;-99.222;2023-11-19T09:37:48;15.57;;;5.57;;
12412;SDS011;13877;18.896;-99.222;2023-11-19T09:40:15;10.13;;;4.20;;
12412;SDS011;13877;18.896;-99.222;2023-11-19T09:42:44;9.85;;;4.55;;
12412;SDS011;13877;18.896;-99.222;2023-11-19T09:45:15;11.73;;;4.90;;
12412;SDS011;13877;18.896;-99.222;2023-11-19T09:47:46;17.63;;;5.30;;
12412;SDS011;13877;18.896;-99.222;2023-11-19T09:50:17;15.55;;;5.15;;
12412;SDS011;13877;18.896;-99.222;2023-11-19T09:52:45;8.90;;;4.60;;
12412;SDS011;13877;18.896;-99.222;2023-11-19T09:55:14;11.20;;;4.60;;
12412;SDS011;13877;18.896;-99.222;2023-11-19T09:57:41;14.10;;;4.97;;
12412;SDS011;13877;18.896;-99.222;2023-11-19T10:00:10;9.68;;;4.95;;
12412;SDS011;13877;18.896;-99.222;2023-11-19T10:02:41;12.07;;;4.80;;
12412;SDS011;13877;18.896;-99.222;2023-11-19T10:05:11;11.63;;;4.28;;
12412;SDS011;13877;18.896;-99.222;2023-11-19T10:07:40;11.13;;;4.75;;
12412;SDS011;13877;18.896;-99.222;2023-11-19T10:10:09;21.08;;;5.10;;
12412;SDS011;13877;18.896;-99.222;2023-11-19T10:12:41;12.43;;;5.03;;
12412;SDS011;13877;18.896;-99.222;2023-11-19T10:15:08;18.50;;;5.53;;
12412;SDS011;13877;18.896;-99.222;2023-11-19T10:17:56;13.38;;;4.53;;
12412;SDS011;13877;18.896;-99.222;2023-11-19T10:20:24;10.70;;;4.65;;
12412;SDS011;13877;18.896;-99.222;2023-11-19T10:22:54;14.13;;;5.40;;
12412;SDS011;13877;18.896;-99.222;2023-11-19T10:25:23;12.65;;;4.90;;
12412;SDS011;13877;18.896;-99.222;2023-11-19T10:27:55;10.40;;;4.80;;
12412;SDS011;13877;18.896;-99.222;2023-11-19T10:33:04;9.35;;;4.03;;
12412;SDS011;13877;18.896;-99.222;2023-11-19T10:35:32;10.93;;;4.65;;
12412;SDS011;13877;18.896;-99.222;2023-11-19T10:38:01;16.38;;;4.80;;
12412;SDS011;13877;18.896;-99.222;2023-11-19T10:40:49;16.67;;;4.22;;
12412;SDS011;13877;18.896;-99.222;2023-11-19T10:43:17;12.27;;;4.97;;
12412;SDS011;13877;18.896;-99.222;2023-11-19T10:45:51;12.90;;;4.10;;
12412;SDS011;13877;18.896;-99.222;2023-11-19T10:48:18;10.30;;;3.95;;
12412;SDS011;13877;18.896;-99.222;2023-11-19T10:50:49;9.35;;;5.40;;
12412;SDS011;13877;18.896;-99.222;2023-11-19T10:53:22;15.63;;;7.43;;
12412;SDS011;13877;18.896;-99.222;2023-11-19T10:55:51;9.38;;;5.20;;
12412;SDS011;13877;18.896;-99.222;2023-11-19T10:58:22;14.02;;;5.78;;
12412;SDS011;13877;18.896;-99.222;2023-11-19T11:00:51;12.18;;;4.78;;
12412;SDS011;13877;18.896;-99.222;2023-11-19T11:03:24;8.90;;;4.78;;
12412;SDS011;13877;18.896;-99.222;2023-11-19T11:05:56;10.73;;;5.47;;
12412;SDS011;13877;18.896;-99.222;2023-11-19T11:08:23;10.52;;;4.70;;
12412;SDS011;13877;18.896;-99.222;2023-11-19T11:10:54;12.65;;;5.05;;
12412;SDS011;13877;18.896;-99.222;2023-11-19T11:13:24;10.65;;;4.82;;
12412;SDS011;13877;18.896;-99.222;2023-11-19T11:15:56;11.40;;;4.45;;
12412;SDS011;13877;18.896;-99.222;2023-11-19T11:18:24;14.43;;;4.40;;
12412;SDS011;13877;18.896;-99.222;2023-11-19T11:21:00;9.38;;;4.85;;
12412;SDS011;13877;18.896;-99.222;2023-11-19T11:29:25;8.27;;;4.22;;
12412;SDS011;13877;18.896;-99.222;2023-11-19T11:33:25;10.23;;;3.92;;
12412;SDS011;13877;18.896;-99.222;2023-11-19T11:35:55;8.40;;;3.65;;
12412;SDS011;13877;18.896;-99.222;2023-11-19T11:38:36;14.25;;;4.25;;
12412;SDS011;13877;18.896;-99.222;2023-11-19T11:41:18;16.02;;;4.18;;
12412;SDS011;13877;18.896;-99.222;2023-11-19T11:43:50;9.02;;;3.95;;
12412;SDS011;13877;18.896;-99.222;2023-11-19T11:49:03;9.98;;;4.10;;
12412;SDS011;13877;18.896;-99.222;2023-11-19T11:57:03;12.23;;;4.15;;
12412;SDS011;13877;18.896;-99.222;2023-11-19T12:02:14;9.82;;;4.40;;
12412;SDS011;13877;18.896;-99.222;2023-11-19T12:04:47;10.95;;;4.05;;
12412;SDS011;13877;18.896;-99.222;2023-11-19T12:07:20;8.13;;;4.05;;
12412;SDS011;13877;18.896;-99.222;2023-11-19T12:09:53;12.48;;;3.78;;
12412;SDS011;13877;18.896;-99.222;2023-11-19T12:12:34;15.95;;;3.97;;
12412;SDS011;13877;18.896;-99.222;2023-11-19T12:15:07;33.17;;;4.63;;
12412;SDS011;13877;18.896;-99.222;2023-11-19T12:17:44;11.00;;;4.43;;
12412;SDS011;13877;18.896;-99.222;2023-11-19T12:20:18;7.25;;;3.67;;
12412;SDS011;13877;18.896;-99.222;2023-11-19T12:22:46;7.35;;;3.83;;
12412;SDS011;13877;18.896;-99.222;2023-11-19T12:25:15;9.90;;;4.15;;
12412;SDS011;13877;18.896;-99.222;2023-11-19T12:27:44;13.57;;;4.05;;
12412;SDS011;13877;18.896;-99.222;2023-11-19T12:30:16;9.77;;;4.30;;
12412;SDS011;13877;18.896;-99.222;2023-11-19T12:32:55;14.27;;;3.95;;
12412;SDS011;13877;18.896;-99.222;2023-11-19T12:35:22;7.70;;;4.07;;
12412;SDS011;13877;18.896;-99.222;2023-11-19T12:37:50;12.15;;;4.43;;
12412;SDS011;13877;18.896;-99.222;2023-11-19T12:40:23;12.85;;;4.25;;
12412;SDS011;13877;18.896;-99.222;2023-11-19T12:42:51;7.85;;;4.20;;
12412;SDS011;13877;18.896;-99.222;2023-11-19T12:45:19;14.55;;;4.43;;
12412;SDS011;13877;18.896;-99.222;2023-11-19T12:47:49;9.38;;;4.15;;
12412;SDS011;13877;18.896;-99.222;2023-11-19T12:50:30;13.70;;;3.78;;
12412;SDS011;13877;18.896;-99.222;2023-11-19T12:53:24;15.00;;;4.00;;
12412;SDS011;13877;18.896;-99.222;2023-11-19T12:55:52;10.48;;;4.00;;
12412;SDS011;13877;18.896;-99.222;2023-11-19T12:58:30;12.05;;;4.13;;
12412;SDS011;13877;18.896;-99.222;2023-11-19T13:01:05;12.95;;;3.97;;
12412;SDS011;13877;18.896;-99.222;2023-11-19T13:03:34;9.10;;;4.50;;
12412;SDS011;13877;18.896;-99.222;2023-11-19T13:06:08;9.57;;;3.60;;
12412;SDS011;13877;18.896;-99.222;2023-11-19T13:08:41;7.40;;;3.75;;
12412;SDS011;13877;18.896;-99.222;2023-11-19T13:11:14;8.60;;;3.88;;
12412;SDS011;13877;18.896;-99.222;2023-11-19T13:14:03;10.63;;;3.13;;
12412;SDS011;13877;18.896;-99.222;2023-11-19T13:16:31;12.85;;;3.90;;
12412;SDS011;13877;18.896;-99.222;2023-11-19T13:18:58;12.23;;;3.85;;
12412;SDS011;13877;18.896;-99.222;2023-11-19T13:21:29;11.57;;;4.00;;
12412;SDS011;13877;18.896;-99.222;2023-11-19T13:23:56;7.72;;;3.42;;
12412;SDS011;13877;18.896;-99.222;2023-11-19T13:26:23;12.82;;;4.38;;
12412;SDS011;13877;18.896;-99.222;2023-11-19T13:28:50;8.25;;;3.40;;
12412;SDS011;13877;18.896;-99.222;2023-11-19T13:31:17;13.35;;;3.85;;
12412;SDS011;13877;18.896;-99.222;2023-11-19T13:33:44;9.98;;;3.28;;
12412;SDS011;13877;18.896;-99.222;2023-11-19T13:36:12;15.82;;;3.63;;
12412;SDS011;13877;18.896;-99.222;2023-11-19T13:38:39;16.23;;;3.70;;
12412;SDS011;13877;18.896;-99.222;2023-11-19T13:41:10;12.07;;;3.67;;
12412;SDS011;13877;18.896;-99.222;2023-11-19T13:43:38;7.60;;;3.75;;
12412;SDS011;13877;18.896;-99.222;2023-11-19T13:46:05;14.23;;;4.57;;
12412;SDS011;13877;18.896;-99.222;2023-11-19T13:48:35;14.35;;;4.00;;
12412;SDS011;13877;18.896;-99.222;2023-11-19T13:51:03;15.65;;;5.10;;
12412;SDS011;13877;18.896;-99.222;2023-11-19T13:53:30;7.68;;;4.53;;
12412;SDS011;13877;18.896;-99.222;2023-11-19T13:55:57;12.65;;;4.90;;
12412;SDS011;13877;18.896;-99.222;2023-11-19T13:58:24;11.52;;;5.00;;
12412;SDS011;13877;18.896;-99.222;2023-11-19T14:00:51;10.07;;;4.80;;
12412;SDS011;13877;18.896;-99.222;2023-11-19T14:03:19;12.65;;;5.03;;
12412;SDS011;13877;18.896;-99.222;2023-11-19T14:05:46;18.00;;;6.43;;
12412;SDS011;13877;18.896;-99.222;2023-11-19T14:08:15;21.63;;;6.50;;
12412;SDS011;13877;18.896;-99.222;2023-11-19T14:10:42;19.65;;;7.97;;
12412;SDS011;13877;18.896;-99.222;2023-11-19T14:13:09;21.30;;;8.43;;
12412;SDS011;13877;18.896;-99.222;2023-11-19T14:15:37;22.42;;;9.85;;
12412;SDS011;13877;18.896;-99.222;2023-11-19T14:18:05;23.90;;;8.90;;
12412;SDS011;13877;18.896;-99.222;2023-11-19T14:20:32;26.50;;;10.57;;
12412;SDS011;13877;18.896;-99.222;2023-11-19T14:22:59;26.73;;;11.02;;
12412;SDS011;13877;18.896;-99.222;2023-11-19T14:25:26;28.45;;;12.80;;
12412;SDS011;13877;18.896;-99.222;2023-11-19T14:27:54;34.58;;;12.30;;
12412;SDS011;13877;18.896;-99.222;2023-11-19T14:30:21;30.08;;;10.45;;
12412;SDS011;13877;18.896;-99.222;2023-11-19T14:32:48;21.55;;;9.90;;
12412;SDS011;13877;18.896;-99.222;2023-11-19T14:35:15;22.60;;;9.95;;
12412;SDS011;13877;18.896;-99.222;2023-11-19T14:37:43;24.25;;;10.40;;
12412;SDS011;13877;18.896;-99.222;2023-11-19T14:40:10;23.77;;;10.75;;
12412;SDS011;13877;18.896;-99.222;2023-11-19T14:42:38;21.52;;;9.63;;